Lake Worth, FL (33460)

4:47 PM EDT on August 01, 2015 (GMT -0400)
Lake Clarke Shores - Caribbean Rd. East | | Change Station
CLOSE
Current Station
Personal Weather Station
Location: Lake Clarke Shores, FL
Elevation: 16 ft
Nearby Weather Stations

Elev 16 ft 26.63 °N, 80.07 °W | Updated 1 minute ago

Overcast
Overcast
87.3 °F
Feels Like 101 °F
N
3.4
Wind Variable Wind from SSW
Gusts 3.8 mph

Today
High -- | Low -- °F
--% Chance of Precip.
Yesterday
High -- | Low -- °F
Precip. -- in
6:45 AM 8:07 PM
Full, 97% visible
Pressure 29.97 in
Visibility 10.0 miles
Clouds Few 3000 ft
Mostly Cloudy 7500 ft
Overcast 11000 ft
Heat Index 101 °F
Dew Point 78 °F
Humidity 75%
Rainfall 0.04 in
Snow Depth Not available.
UV 3 out of 12
Pollen 2.70 out of 12
Air Quality Not available.
Flu Activity Not available.
METAR KPBI 011953Z 16009KT 10SM FEW030 BKN075 OVC110 29/26 A2997 RMK AO2 RAE52 TSE35 SLP148 CB DSNT SW NW P0001 T02890256

More Conditions Fewer Conditions

Pressure 29.97 in
Visibility 10.0 miles
Clouds Few 3000 ft
Mostly Cloudy 7500 ft
Overcast 11000 ft
Heat Index 101 °F
Dew Point 78 °F
Humidity 75%
Rainfall 0.04 in
Snow Depth Not available.
UV 3 out of 12
Pollen 2.70 out of 12
Air Quality Not available.
Flu Activity Not available.
METAR KPBI 011953Z 16009KT 10SM FEW030 BKN075 OVC110 29/26 A2997 RMK AO2 RAE52 TSE35 SLP148 CB DSNT SW NW P0001 T02890256

More Conditions Fewer Conditions

Nowcast | as of 3:49 PM EDT on August 1, 2015

Showers and thunderstorms will be concentrated over The Everglades and Lake Okeechobee areas this afternoon into the early evening. Movement of the showers and thunderstorms is to the north- northeast and some of these storms will affect Metro Palm Beach County and the beaches late this afternoon. Some of these storms are capable of producing very heavy rainfall leading to flooding, gusty winds in excess of 35 mph, frequent lightning and even small hail. Elsewhere across the area, mostly dry conditions are expected along the Collier County coast the remainder of the afternoon. Over the Miami and Fort Lauderdale Metro area and beaches, mainly dry conditions are also expected although a few showers are not out of the question.

×

10-Day Weather Forecast

×

Almanac

Astronomy

Aug. 01, 2015 Rise Set
Actual Time
Civil Twilight
Nautical Twilight
Astronomical Twilight
Moon
Length of Visible Light
Length of Day
Tomorrow will be .
, % of the Moon is Illuminated

Today's Extremes

State Highs State Lows

Community

WunderPhotos

Upload Photos

1,843,051 photos uploaded!

WunderBlogs® & News

Nearby

Air Quality

  Air Quality AQ Index Pollutant
Not available.

Snow Depth

Station Depth Elevation

Earthquake Activity

City Distance Mag. Time & Date
Minimum magnitude displayed is 2.5.

Coastal Water Temperatures

Place Temperature

Stations

Nearby Weather Stations

Station Location Temp. Windchill Dew Point Humidity Wind Precip. Elev Updated Type